Time;durP1;ratioP1;P1;durP2;ratioP2;P2;SDS_P1;SDS_P2;PMS_P1;PMS_P2;Temp;Humidity;BMP_temperature;BMP_pressure;BME280_temperature;BME280_humidity;BME280_pressure;Samples;Min_cycle;Max_cycle;Signal;HPM_P1;HPM_P2
2021/12/12 00:01:15;;;;;;;9.15;4.97;;;5.40;70.50;;;;;;2567778;53;21883;-82
2021/12/12 00:03:47;;;;;;;;;;;5.40;70.50;;;;;;2335620;54;20916;-81
2021/12/12 00:06:16;;;;;;;10.70;4.83;;;5.40;70.10;;;;;;2340596;54;20115;-83
2021/12/12 00:08:44;;;;;;;8.85;4.95;;;5.30;70.40;;;;;;2331151;54;20920;-82
2021/12/12 00:11:14;;;;;;;7.25;4.28;;;5.30;70.60;;;;;;2562972;53;21079;-81
2021/12/12 00:13:44;;;;;;;8.10;4.43;;;5.20;70.70;;;;;;2569081;53;20976;-81
2021/12/12 00:16:11;;;;;;;8.80;4.93;;;5.20;70.80;;;;;;2552514;53;20967;-82
2021/12/12 00:18:37;;;;;;;8.88;4.25;;;5.10;70.70;;;;;;2576271;53;20983;-80
2021/12/12 00:21:04;;;;;;;6.75;3.65;;;5.10;70.70;;;;;;2574444;53;20991;-81
2021/12/12 00:23:31;;;;;;;6.95;3.83;;;5.10;70.70;;;;;;2575017;53;20999;-81
2021/12/12 00:25:58;;;;;;;8.32;3.83;;;5.00;70.70;;;;;;2574447;53;20972;-81
2021/12/12 00:28:26;;;;;;;7.40;3.67;;;5.00;70.80;;;;;;2574631;53;20985;-82
2021/12/12 00:30:54;;;;;;;9.10;4.10;;;4.90;70.80;;;;;;2333356;54;20916;-82
2021/12/12 00:33:21;;;;;;;8.32;3.87;;;4.90;70.80;;;;;;2554320;53;21042;-82
2021/12/12 00:35:49;;;;;;;12.35;4.90;;;4.90;71.00;;;;;;2556184;53;20971;-81
2021/12/12 00:38:17;;;;;;;7.85;3.75;;;4.90;71.10;;;;;;2562604;53;21034;-81
2021/12/12 00:40:45;;;;;;;6.82;4.03;;;4.90;71.20;;;;;;2575310;53;20912;-81
2021/12/12 00:43:14;;;;;;;5.32;3.05;;;4.80;71.30;;;;;;2576235;53;21104;-82
2021/12/12 00:45:41;;;;;;;7.22;3.12;;;4.80;71.50;;;;;;2562076;53;20985;-81
2021/12/12 00:48:07;;;;;;;5.50;3.08;;;4.80;71.60;;;;;;2328604;54;20936;-81
2021/12/12 00:50:37;;;;;;;5.05;2.78;;;4.80;71.80;;;;;;2555904;53;20943;-81
2021/12/12 00:53:04;;;;;;;6.35;3.17;;;4.80;71.90;;;;;;2561133;53;20904;-82
2021/12/12 00:55:37;;;;;;;5.62;3.00;;;4.80;72.00;;;;;;2326383;54;21015;-81
2021/12/12 00:58:11;;;;;;;6.37;2.95;;;4.80;72.00;;;;;;2565984;53;20939;-82
2021/12/12 01:00:52;;;;;;;5.22;2.60;;;4.80;72.00;;;;;;2567972;53;20976;-80
2021/12/12 01:03:25;;;;;;;5.82;2.55;;;4.80;72.10;;;;;;2326405;54;20920;-82
2021/12/12 01:05:52;;;;;;;5.32;2.37;;;4.80;72.20;;;;;;2573750;53;21035;-81
2021/12/12 01:08:18;;;;;;;7.90;3.05;;;4.80;72.20;;;;;;2558807;53;21809;-81
2021/12/12 01:10:50;;;;;;;7.35;3.40;;;4.80;72.30;;;;;;2554303;53;21851;-82
2021/12/12 01:13:17;;;;;;;5.93;3.12;;;4.80;72.40;;;;;;2327843;54;20987;-82
2021/12/12 01:15:50;;;;;;;5.78;3.03;;;4.80;72.40;;;;;;2336447;54;21841;-81
2021/12/12 01:18:21;;;;;;;4.80;2.28;;;4.80;72.60;;;;;;2339574;54;20927;-82
2021/12/12 01:20:59;;;;;;;5.97;2.78;;;4.90;72.80;;;;;;2574550;53;21245;-82
2021/12/12 01:23:28;;;;;;;4.93;2.50;;;4.90;72.80;;;;;;2341782;54;20964;-83
2021/12/12 01:25:55;;;;;;;6.35;3.10;;;4.90;72.90;;;;;;2576284;53;21003;-82
2021/12/12 01:28:26;;;;;;;5.57;2.85;;;4.90;72.90;;;;;;2575581;53;21058;-81
2021/12/12 01:30:59;;;;;;;4.32;2.42;;;4.90;73.00;;;;;;2545609;53;20983;-81
2021/12/12 01:33:35;;;;;;;5.68;2.97;;;5.00;72.80;;;;;;2565152;53;20992;-81
2021/12/12 01:36:22;;;;;;;6.85;3.22;;;5.00;72.80;;;;;;2339142;54;20923;-82
2021/12/12 01:38:56;;;;;;;5.68;3.20;;;5.00;72.50;;;;;;2329247;54;20971;-82
2021/12/12 01:41:51;;;;;;;6.20;3.17;;;5.00;72.50;;;;;;2563568;53;20912;-82
2021/12/12 01:44:32;;;;;;;6.25;2.97;;;5.00;72.40;;;;;;2563024;53;21417;-82
2021/12/12 01:47:08;;;;;;;5.22;2.95;;;5.00;72.50;;;;;;2327413;54;21253;-81
2021/12/12 01:49:35;;;;;;;5.82;2.50;;;5.00;72.50;;;;;;2344416;54;21016;-82
2021/12/12 01:52:14;;;;;;;5.75;3.10;;;5.00;72.60;;;;;;2563236;53;21071;-82
2021/12/12 01:54:44;;;;;;;5.25;2.97;;;5.00;72.60;;;;;;2336223;54;20996;-82
2021/12/12 01:57:13;;;;;;;5.70;3.08;;;5.00;72.60;;;;;;2340876;54;20960;-81
2021/12/12 01:59:40;;;;;;;5.65;2.78;;;5.10;72.60;;;;;;2346595;54;20952;-82
2021/12/12 02:02:14;;;;;;;5.50;3.12;;;5.10;72.40;;;;;;2548621;53;20964;-81
2021/12/12 02:04:43;;;;;;;5.32;2.90;;;5.00;72.10;;;;;;2570728;53;21407;-82
2021/12/12 02:07:10;;;;;;;4.95;2.62;;;5.00;71.90;;;;;;2571104;53;21080;-82
2021/12/12 02:09:36;;;;;;;5.65;2.70;;;5.00;71.80;;;;;;2340922;54;20915;-82
2021/12/12 02:12:03;;;;;;;5.03;2.47;;;5.00;71.80;;;;;;2555339;53;20980;-81
2021/12/12 02:14:31;;;;;;;5.87;2.85;;;5.00;71.80;;;;;;2336610;54;21557;-82
2021/12/12 02:17:06;;;;;;;7.55;2.95;;;5.00;71.70;;;;;;2342943;54;20952;-81
2021/12/12 02:19:43;;;;;;;6.18;2.90;;;5.00;71.50;;;;;;2568373;53;21102;-82
2021/12/12 02:35:56;;;;;;;7.65;3.90;;;4.80;71.30;;;;;;2318793;54;20915;-82
2021/12/12 02:38:30;;;;;;;6.12;3.42;;;4.80;71.50;;;;;;2327406;54;21011;-81
2021/12/12 02:40:59;;;;;;;7.28;4.03;;;4.80;71.80;;;;;;2335641;54;20904;-83
2021/12/12 02:43:27;;;;;;;9.82;4.45;;;4.80;72.10;;;;;;2341594;54;21007;-81
2021/12/12 02:45:55;;;;;;;10.15;4.95;;;4.80;72.50;;;;;;2556342;53;21290;-82
2021/12/12 02:48:28;;;;;;;13.38;4.82;;;4.80;72.90;;;;;;2573319;53;20896;-81
2021/12/12 02:50:55;;;;;;;10.20;4.90;;;4.90;73.50;;;;;;2524342;53;21312;-81
2021/12/12 02:53:24;;;;;;;8.50;4.75;;;4.90;73.80;;;;;;2577161;53;20987;-82
2021/12/12 02:56:05;;;;;;;10.88;4.82;;;5.00;74.10;;;;;;2576137;53;20956;-82
2021/12/12 02:58:32;;;;;;;8.15;4.57;;;5.00;74.30;;;;;;2339672;54;22088;-81
2021/12/12 03:01:26;;;;;;;7.32;4.12;;;5.10;74.60;;;;;;2577054;53;20929;-81
2021/12/12 03:03:52;;;;;;;6.45;3.87;;;5.10;74.70;;;;;;2331796;54;20967;-82
2021/12/12 03:06:22;;;;;;;6.85;3.70;;;5.20;74.90;;;;;;2332554;54;20980;-82
2021/12/12 03:08:50;;;;;;;9.32;3.62;;;5.30;75.00;;;;;;2566082;53;21014;-82
2021/12/12 03:11:17;;;;;;;7.97;3.58;;;5.40;75.00;;;;;;2571630;53;20928;-81
2021/12/12 03:13:43;;;;;;;7.32;4.00;;;5.40;74.80;;;;;;2318548;54;21403;-82
2021/12/12 03:16:10;;;;;;;7.40;3.60;;;5.40;74.60;;;;;;2576714;53;21019;-81
2021/12/12 03:18:41;;;;;;;5.10;3.40;;;5.50;74.50;;;;;;2330770;54;20943;-82
2021/12/12 03:21:16;;;;;;;6.68;2.78;;;5.50;74.30;;;;;;2572093;53;20935;-81
2021/12/12 03:23:51;;;;;;;6.97;3.10;;;5.60;74.20;;;;;;2570700;53;22106;-81
2021/12/12 03:26:18;;;;;;;6.00;3.10;;;5.60;73.90;;;;;;2560058;53;21019;-81
2021/12/12 03:28:47;;;;;;;5.60;2.70;;;5.60;73.80;;;;;;2578399;53;21074;-81
2021/12/12 03:31:19;;;;;;;6.45;2.90;;;5.70;73.80;;;;;;2549878;53;21004;-82
2021/12/12 03:33:45;;;;;;;6.18;3.10;;;5.70;73.60;;;;;;2329926;54;20896;-82
2021/12/12 03:36:12;;;;;;;7.55;2.83;;;5.70;73.60;;;;;;2575821;53;21989;-82
2021/12/12 03:38:42;;;;;;;7.07;3.10;;;5.70;73.50;;;;;;2563413;53;21010;-82
2021/12/12 03:41:10;;;;;;;7.15;2.70;;;5.70;73.30;;;;;;2339382;54;20955;-82
2021/12/12 03:43:37;;;;;;;5.37;2.40;;;5.70;73.80;;;;;;2575014;53;20944;-82
2021/12/12 03:46:10;;;;;;;6.60;2.60;;;5.70;72.90;;;;;;2344782;54;20982;-82
2021/12/12 03:48:37;;;;;;;5.32;2.72;;;5.70;72.80;;;;;;2517445;53;20984;-82
2021/12/12 03:51:04;;;;;;;5.57;2.75;;;5.70;72.70;;;;;;2558194;53;20928;-83
2021/12/12 03:53:31;;;;;;;4.22;2.22;;;5.70;72.50;;;;;;2335480;54;20952;-82
2021/12/12 03:55:58;;;;;;;6.30;2.58;;;5.70;72.30;;;;;;2336077;54;20931;-82
2021/12/12 03:58:24;;;;;;;6.45;2.60;;;5.70;72.20;;;;;;2336228;54;20951;-83
2021/12/12 04:00:59;;;;;;;6.18;2.67;;;5.60;72.10;;;;;;2563694;53;20960;-80
2021/12/12 04:03:25;;;;;;;5.80;2.83;;;5.60;71.90;;;;;;2575566;53;21992;-81
2021/12/12 04:05:54;;;;;;;7.22;2.60;;;5.60;71.90;;;;;;2337449;54;20947;-81
2021/12/12 04:08:27;;;;;;;5.45;2.33;;;5.60;71.90;;;;;;2335552;54;20912;-83
2021/12/12 04:10:53;;;;;;;6.75;2.90;;;5.50;71.80;;;;;;2562017;53;20947;-82
2021/12/12 04:13:20;;;;;;;6.30;2.90;;;5.50;72.00;;;;;;2564631;53;20917;-81
2021/12/12 04:15:50;;;;;;;9.68;3.03;;;5.50;72.00;;;;;;2561744;53;20979;-81
2021/12/12 04:18:20;;;;;;;5.30;2.80;;;5.50;72.10;;;;;;2339140;54;20975;-82
2021/12/12 04:20:47;;;;;;;6.47;3.12;;;5.50;72.10;;;;;;2326341;54;20951;-80
2021/12/12 04:23:18;;;;;;;6.62;3.12;;;5.40;72.00;;;;;;2533948;53;20943;-82
2021/12/12 04:25:44;;;;;;;5.25;2.33;;;5.40;72.00;;;;;;2554622;53;20974;-82
2021/12/12 04:28:10;;;;;;;4.78;2.75;;;5.40;72.00;;;;;;2567846;53;20991;-82
2021/12/12 04:30:36;;;;;;;6.75;2.35;;;5.40;72.00;;;;;;2553776;53;21018;-81
2021/12/12 04:33:03;;;;;;;6.68;2.60;;;5.40;72.00;;;;;;2574051;53;21007;-81
2021/12/12 04:35:30;;;;;;;5.97;2.92;;;5.40;71.90;;;;;;2556504;53;20963;-82
2021/12/12 04:37:58;;;;;;;4.95;2.67;;;5.40;71.90;;;;;;2572083;53;21839;-81
2021/12/12 04:40:25;;;;;;;6.12;2.65;;;5.30;71.80;;;;;;2315355;54;20967;-82
2021/12/12 04:42:53;;;;;;;5.95;2.90;;;5.30;71.70;;;;;;2571698;53;20892;-81
2021/12/12 04:45:44;;;;;;;6.00;2.67;;;5.30;71.70;;;;;;2577091;53;21007;-82
2021/12/12 04:51:48;;;;;;;7.10;2.65;;;5.20;71.40;;;;;;2565652;53;20972;-81
2021/12/12 04:55:56;;;;;;;4.93;2.30;;;5.20;71.30;;;;;;2346082;54;21051;-81
2021/12/12 05:00:19;;;;;;;5.37;2.22;;;5.20;70.70;;;;;;2338574;54;20970;-82
2021/12/12 05:03:17;;;;;;;6.78;2.30;;;5.10;70.30;;;;;;2336893;54;21034;-81
2021/12/12 05:05:49;;;;;;;4.60;2.10;;;5.00;70.50;;;;;;2570630;53;21310;-81
2021/12/12 05:08:29;;;;;;;5.15;2.30;;;5.00;70.60;;;;;;2569808;53;20941;-82
2021/12/12 05:10:59;;;;;;;7.37;2.17;;;4.90;70.50;;;;;;2341393;54;20964;-82
2021/12/12 05:13:32;;;;;;;6.47;2.20;;;4.90;70.80;;;;;;2349128;54;21382;-82
2021/12/12 05:16:05;;;;;;;6.18;2.40;;;4.90;71.10;;;;;;2323146;54;20961;-81
2021/12/12 05:18:34;;;;;;;6.22;2.28;;;4.80;71.20;;;;;;2567567;53;21838;-81
2021/12/12 05:21:09;;;;;;;6.35;2.50;;;4.80;71.40;;;;;;2299421;54;20999;-81
2021/12/12 05:23:36;;;;;;;4.50;2.00;;;4.80;71.50;;;;;;2337224;54;21426;-81
2021/12/12 05:26:13;;;;;;;6.18;2.47;;;4.80;71.60;;;;;;2342993;54;20924;-81
2021/12/12 05:28:42;;;;;;;6.20;2.22;;;4.80;71.60;;;;;;2576993;53;20956;-81
2021/12/12 05:31:09;;;;;;;6.30;2.33;;;4.80;71.80;;;;;;2335402;54;21509;-81
2021/12/12 05:33:36;;;;;;;4.68;2.05;;;4.70;72.50;;;;;;2343900;54;21026;-81
2021/12/12 05:36:02;;;;;;;5.07;2.00;;;4.70;71.90;;;;;;2576928;53;20993;-81
2021/12/12 05:38:29;;;;;;;4.25;2.15;;;4.70;72.00;;;;;;2564904;53;20987;-81
2021/12/12 05:40:55;;;;;;;5.85;2.55;;;4.70;72.20;;;;;;2318208;54;20929;-81
2021/12/12 05:43:21;;;;;;;5.00;2.17;;;4.70;72.30;;;;;;2575010;53;20971;-81
2021/12/12 05:45:48;;;;;;;4.45;2.10;;;4.80;72.40;;;;;;2567611;53;20920;-82
2021/12/12 05:48:14;;;;;;;5.57;2.45;;;4.80;72.30;;;;;;2340291;54;21090;-82
2021/12/12 05:50:41;;;;;;;7.90;2.50;;;4.80;72.20;;;;;;2558385;53;21036;-81
2021/12/12 05:53:08;;;;;;;5.07;2.28;;;4.70;71.90;;;;;;2574975;53;20932;-81
2021/12/12 05:55:35;;;;;;;7.00;2.12;;;4.70;71.90;;;;;;2564553;53;22165;-82
2021/12/12 05:58:03;;;;;;;4.25;2.05;;;4.70;71.90;;;;;;2567700;53;21014;-83
2021/12/12 06:00:43;;;;;;;4.20;2.25;;;4.70;72.00;;;;;;2572389;53;20928;-81
2021/12/12 06:03:11;;;;;;;3.40;1.92;;;4.70;72.20;;;;;;2564091;53;21114;-81
2021/12/12 06:05:37;;;;;;;4.95;2.22;;;4.70;72.20;;;;;;2315716;54;20972;-81
2021/12/12 06:08:04;;;;;;;4.82;1.80;;;4.70;72.30;;;;;;2340591;54;21011;-83
2021/12/12 06:10:30;;;;;;;4.20;2.20;;;4.80;72.60;;;;;;2536030;53;21019;-81
2021/12/12 06:12:57;;;;;;;6.35;2.10;;;4.80;72.60;;;;;;2570995;53;20940;-81
2021/12/12 06:15:27;;;;;;;4.07;2.00;;;4.70;72.60;;;;;;2330795;54;21003;-82
2021/12/12 06:17:53;;;;;;;6.12;2.05;;;4.80;72.70;;;;;;2559022;53;20947;-81
2021/12/12 06:20:22;;;;;;;5.05;1.95;;;4.80;72.90;;;;;;2569587;53;20959;-81
2021/12/12 06:22:49;;;;;;;3.55;2.00;;;4.80;72.90;;;;;;2318969;54;20939;-81
2021/12/12 06:25:16;;;;;;;4.03;1.92;;;4.90;73.20;;;;;;2566152;53;20979;-81
2021/12/12 06:27:43;;;;;;;4.95;2.30;;;4.90;73.20;;;;;;2534782;53;21066;-81
2021/12/12 06:30:13;;;;;;;3.83;2.17;;;4.90;74.20;;;;;;2327942;54;21249;-82
2021/12/12 06:32:39;;;;;;;4.22;2.08;;;5.00;73.50;;;;;;2562505;53;20951;-81
2021/12/12 06:35:08;;;;;;;3.35;1.77;;;5.00;73.60;;;;;;2337803;54;20991;-81
2021/12/12 06:37:35;;;;;;;5.55;1.95;;;5.00;73.80;;;;;;2562582;53;21484;-81
2021/12/12 06:40:05;;;;;;;4.35;1.95;;;5.10;73.90;;;;;;2565071;53;22105;-82
2021/12/12 06:42:31;;;;;;;3.85;1.90;;;5.10;73.90;;;;;;2567181;53;20904;-82
2021/12/12 06:45:00;;;;;;;3.83;1.60;;;5.20;74.00;;;;;;2568263;53;21008;-81
2021/12/12 06:47:26;;;;;;;4.68;1.75;;;5.20;74.00;;;;;;2555625;53;20931;-82
2021/12/12 06:49:52;;;;;;;4.75;1.65;;;5.30;74.80;;;;;;2555482;53;21000;-81
2021/12/12 06:52:18;;;;;;;4.43;1.65;;;5.30;74.10;;;;;;2316347;54;20970;-81
2021/12/12 06:54:46;;;;;;;4.53;1.90;;;5.40;74.90;;;;;;2555311;53;20920;-82
2021/12/12 06:57:13;;;;;;;5.03;2.00;;;5.40;74.10;;;;;;2555258;53;21031;-82
2021/12/12 06:59:40;;;;;;;4.95;1.58;;;5.40;74.10;;;;;;2556516;53;20916;-82
2021/12/12 07:02:07;;;;;;;4.15;1.50;;;5.50;74.20;;;;;;2570751;53;20963;-81
2021/12/12 07:04:33;;;;;;;3.85;1.50;;;5.50;74.10;;;;;;2554448;53;21533;-81
2021/12/12 07:07:01;;;;;;;4.50;1.40;;;5.60;74.80;;;;;;2571625;53;21588;-82
2021/12/12 07:09:30;;;;;;;4.80;1.60;;;5.60;74.00;;;;;;2553926;53;20994;-82
2021/12/12 07:11:57;;;;;;;5.07;2.00;;;5.70;74.10;;;;;;2570005;53;20911;-82
2021/12/12 07:14:24;;;;;;;6.60;3.28;;;5.70;74.00;;;;;;2560621;53;20983;-81
2021/12/12 07:16:51;;;;;;;5.45;3.22;;;5.70;74.00;;;;;;2565824;53;20931;-82
2021/12/12 07:19:17;;;;;;;6.15;2.40;;;5.80;74.00;;;;;;2555174;53;21733;-82
2021/12/12 07:21:44;;;;;;;10.50;5.82;;;5.80;73.90;;;;;;2573951;53;20924;-81
2021/12/12 07:24:10;;;;;;;11.30;6.55;;;5.80;73.90;;;;;;2315788;54;20930;-81
2021/12/12 07:26:38;;;;;;;10.52;5.43;;;5.90;74.00;;;;;;2555614;53;20939;-82
2021/12/12 07:29:04;;;;;;;11.12;6.07;;;5.90;73.90;;;;;;2554916;53;20991;-81
2021/12/12 07:31:32;;;;;;;8.57;3.95;;;6.00;73.90;;;;;;2555308;53;20947;-81
2021/12/12 07:34:00;;;;;;;5.65;2.75;;;6.00;73.80;;;;;;2555650;53;20951;-82
2021/12/12 07:36:27;;;;;;;5.03;2.33;;;6.00;73.90;;;;;;2554809;53;20979;-82
2021/12/12 07:38:56;;;;;;;3.20;1.50;;;6.10;73.90;;;;;;2555674;53;20934;-81
2021/12/12 07:41:27;;;;;;;3.62;1.55;;;6.10;74.00;;;;;;2554360;53;20947;-82
2021/12/12 07:43:55;;;;;;;3.70;1.60;;;6.10;73.90;;;;;;2571393;53;20951;-81
2021/12/12 07:46:21;;;;;;;2.83;1.33;;;6.20;74.10;;;;;;2565347;53;20987;-81
2021/12/12 07:48:48;;;;;;;2.75;1.30;;;6.20;74.20;;;;;;2562747;53;20931;-82
2021/12/12 07:51:15;;;;;;;8.27;2.97;;;6.30;74.20;;;;;;2326515;54;20927;-82
2021/12/12 07:53:41;;;;;;;12.50;5.85;;;6.30;74.20;;;;;;2563677;53;21481;-81
2021/12/12 07:56:08;;;;;;;9.18;5.43;;;6.40;74.10;;;;;;2532600;53;20996;-82
2021/12/12 07:58:36;;;;;;;9.27;5.57;;;6.40;73.80;;;;;;2323775;54;21028;-81
2021/12/12 08:01:02;;;;;;;9.00;5.00;;;6.40;73.50;;;;;;2567038;53;20894;-82
2021/12/12 08:03:31;;;;;;;8.75;5.47;;;6.40;73.40;;;;;;2320953;54;20987;-82
2021/12/12 08:06:00;;;;;;;9.60;6.00;;;6.40;73.40;;;;;;2556000;53;21054;-82
2021/12/12 08:08:26;;;;;;;8.45;4.50;;;6.40;73.40;;;;;;2555751;53;20947;-82
2021/12/12 08:10:53;;;;;;;6.53;3.87;;;6.50;73.50;;;;;;2555539;53;20979;-80
2021/12/12 08:13:19;;;;;;;4.68;2.58;;;6.50;73.30;;;;;;2327710;54;20984;-82
2021/12/12 08:15:46;;;;;;;3.85;2.12;;;6.50;73.20;;;;;;2564383;53;20951;-82
2021/12/12 08:18:15;;;;;;;4.00;2.05;;;6.50;73.10;;;;;;2574017;53;21285;-83
2021/12/12 08:20:44;;;;;;;4.20;1.95;;;6.50;73.10;;;;;;2524664;54;21281;-83
2021/12/12 08:23:10;;;;;;;4.35;2.03;;;6.60;73.10;;;;;;2335393;54;20951;-81
2021/12/12 08:25:37;;;;;;;5.03;2.03;;;6.60;73.20;;;;;;2561311;53;21697;-82
2021/12/12 08:28:04;;;;;;;5.03;2.30;;;6.60;73.20;;;;;;2331997;54;21288;-82
2021/12/12 08:30:31;;;;;;;2.87;1.50;;;6.60;73.20;;;;;;2557140;53;20999;-82
2021/12/12 08:32:57;;;;;;;3.55;1.60;;;6.60;73.30;;;;;;2316628;54;21007;-82
2021/12/12 08:35:24;;;;;;;3.00;1.60;;;6.70;73.50;;;;;;2325758;54;20995;-82
2021/12/12 08:37:51;;;;;;;4.28;1.60;;;6.70;73.60;;;;;;2329422;54;20968;-81
2021/12/12 08:40:22;;;;;;;3.78;1.30;;;6.70;73.80;;;;;;2554738;53;20920;-82
2021/12/12 08:42:49;;;;;;;3.72;1.20;;;6.70;73.70;;;;;;2556810;53;21418;-81
2021/12/12 08:45:17;;;;;;;3.78;1.30;;;6.80;73.90;;;;;;2566233;53;20952;-81
2021/12/12 08:47:43;;;;;;;3.55;1.20;;;6.80;74.00;;;;;;2323815;54;20974;-82
2021/12/12 08:50:11;;;;;;;3.85;1.20;;;6.90;74.10;;;;;;2329609;54;25602;-81
2021/12/12 08:52:40;;;;;;;3.28;1.30;;;6.90;74.10;;;;;;2340228;54;20940;-81
2021/12/12 08:55:14;;;;;;;5.10;1.40;;;7.00;74.30;;;;;;2560499;53;21466;-81
2021/12/12 08:57:49;;;;;;;3.80;1.60;;;7.00;74.20;;;;;;2556080;53;20939;-81
2021/12/12 09:00:30;;;;;;;3.00;1.12;;;7.10;74.30;;;;;;2557276;53;20971;-81
2021/12/12 09:02:57;;;;;;;5.07;1.40;;;7.10;74.20;;;;;;2318964;54;20974;-82
2021/12/12 09:05:27;;;;;;;3.33;1.23;;;7.20;75.00;;;;;;2573682;53;21106;-81
2021/12/12 09:08:09;;;;;;;2.45;1.05;;;7.20;74.50;;;;;;2571759;53;20888;-81
2021/12/12 09:10:47;;;;;;;3.58;1.20;;;7.30;74.50;;;;;;2320018;54;21015;-82
2021/12/12 09:13:22;;;;;;;3.37;1.20;;;7.40;74.50;;;;;;2573688;53;21262;-81
2021/12/12 09:16:08;;;;;;;2.53;1.10;;;7.40;74.40;;;;;;2335715;54;20887;-82
2021/12/12 09:19:00;;;;;;;3.03;1.27;;;7.50;74.00;;;;;;2317438;54;21062;-82
2021/12/12 09:22:20;;;;;;;4.35;1.45;;;7.50;74.40;;;;;;2326365;54;20996;-82
2021/12/12 09:25:00;;;;;;;2.78;1.15;;;7.60;73.50;;;;;;2559639;53;20951;-81
2021/12/12 09:27:30;;;;;;;2.62;1.20;;;7.70;74.20;;;;;;2295411;54;20951;-82
2021/12/12 09:30:06;;;;;;;4.57;1.40;;;7.70;74.50;;;;;;2526272;54;20941;-82
2021/12/12 09:33:20;;;;;;;2.37;1.00;;;7.80;74.70;;;;;;2321693;54;20955;-81
2021/12/12 09:35:54;;;;;;;3.30;1.40;;;7.80;73.60;;;;;;2327486;54;20932;-81
2021/12/12 09:38:38;;;;;;;3.47;1.10;;;7.90;74.60;;;;;;2568103;53;20987;-81
2021/12/12 09:45:42;;;;;;;2.70;1.10;;;7.90;74.60;;;;;;2560617;53;21068;-81
2021/12/12 09:53:18;;;;;;;;;;;8.20;73.80;;;;;;2561594;53;20947;-81
2021/12/12 09:56:06;;;;;;;2.87;1.20;;;8.30;73.10;;;;;;2318458;54;20391;-81
2021/12/12 09:59:07;;;;;;;3.53;1.00;;;8.30;73.70;;;;;;2576049;53;21023;-82
2021/12/12 10:01:54;;;;;;;2.60;1.45;;;8.30;73.80;;;;;;2557641;53;21003;-81
2021/12/12 10:06:34;;;;;;;3.40;2.00;;;8.40;74.30;;;;;;2571596;53;21011;-81
2021/12/12 10:09:23;;;;;;;4.40;2.33;;;8.40;72.70;;;;;;2540723;53;20992;-82
2021/12/12 10:12:35;;;;;;;6.03;2.83;;;8.50;73.80;;;;;;2329340;54;20956;-82
2021/12/12 10:15:18;;;;;;;5.82;2.87;;;8.50;73.20;;;;;;2530442;53;21532;-82
2021/12/12 10:19:26;;;;;;;8.52;3.12;;;8.60;73.70;;;;;;2556920;53;20979;-81
2021/12/12 10:23:38;;;;;;;4.55;3.12;;;8.60;73.70;;;;;;2565313;53;20943;-82
2021/12/12 10:26:16;;;;;;;5.93;3.17;;;8.60;72.50;;;;;;2542368;53;21019;-82
2021/12/12 10:28:56;;;;;;;6.43;3.40;;;8.60;73.40;;;;;;2552943;53;21384;-82
2021/12/12 10:31:27;;;;;;;6.10;3.40;;;8.60;73.10;;;;;;2329080;54;20966;-82
2021/12/12 10:33:57;;;;;;;5.90;3.78;;;8.60;73.40;;;;;;2332732;54;21003;-83
2021/12/12 10:36:40;;;;;;;7.45;3.65;;;8.60;73.40;;;;;;2317101;54;21030;-82
2021/12/12 10:41:45;;;;;;;6.20;3.28;;;8.60;73.30;;;;;;2536528;53;20958;-82
2021/12/12 10:45:47;;;;;;;7.18;2.95;;;8.70;72.30;;;;;;2558084;53;21716;-82
2021/12/12 10:48:18;;;;;;;5.20;3.10;;;8.70;72.50;;;;;;2341422;54;20966;-81
2021/12/12 10:51:31;;;;;;;5.72;3.12;;;8.70;73.60;;;;;;2537183;53;21007;-82
2021/12/12 10:55:12;;;;;;;6.47;3.47;;;8.70;72.90;;;;;;2558059;53;20979;-81
2021/12/12 10:57:39;;;;;;;5.90;3.67;;;8.70;73.50;;;;;;2526522;54;21055;-81
2021/12/12 11:00:41;;;;;;;6.75;3.75;;;8.80;73.90;;;;;;2554872;53;21188;-82
2021/12/12 11:03:10;;;;;;;7.05;3.47;;;8.80;72.90;;;;;;2537684;53;21070;-82
2021/12/12 11:05:55;;;;;;;6.55;3.62;;;8.80;73.70;;;;;;2296852;54;20948;-81
2021/12/12 11:08:36;;;;;;;6.22;3.80;;;8.80;73.60;;;;;;2552680;53;20986;-81
2021/12/12 11:11:15;;;;;;;5.30;2.83;;;8.90;74.00;;;;;;2552372;53;20995;-82
2021/12/12 11:14:04;;;;;;;5.57;3.17;;;8.90;74.00;;;;;;2522321;54;21058;-81
2021/12/12 11:16:37;;;;;;;5.53;2.87;;;9.00;74.40;;;;;;2553319;53;21003;-82
2021/12/12 11:19:15;;;;;;;5.47;3.20;;;9.00;74.30;;;;;;2312803;54;21013;-81
2021/12/12 11:21:50;;;;;;;8.10;4.12;;;9.00;74.10;;;;;;2534477;53;20931;-82
2021/12/12 11:24:23;;;;;;;40.85;15.45;;;9.10;74.00;;;;;;2560088;53;21031;-82
2021/12/12 11:27:04;;;;;;;33.17;12.55;;;9.10;73.80;;;;;;2562234;53;20950;-81
2021/12/12 11:29:34;;;;;;;18.83;9.27;;;9.20;73.80;;;;;;2558987;53;20955;-81
2021/12/12 11:32:05;;;;;;;13.57;7.03;;;9.20;73.70;;;;;;2559865;53;20945;-82
2021/12/12 11:34:43;;;;;;;10.35;5.53;;;9.20;73.50;;;;;;2307714;54;20992;-82
2021/12/12 11:37:30;;;;;;;7.75;4.72;;;9.20;73.20;;;;;;2556308;53;21003;-81
2021/12/12 11:42:59;;;;;;;8.13;4.80;;;9.20;72.30;;;;;;2569893;53;20971;-83
2021/12/12 11:45:31;;;;;;;6.85;4.32;;;9.20;72.60;;;;;;2553962;53;21002;-82
2021/12/12 11:48:16;;;;;;;;;;;9.20;72.70;;;;;;2573672;53;21623;-82
2021/12/12 11:51:03;;;;;;;7.10;3.80;;;9.20;71.50;;;;;;2458397;53;3113057;-82
2021/12/12 11:55:27;;;;;;;7.72;4.03;;;9.20;73.40;;;;;;2567856;53;20920;-82
2021/12/12 11:59:25;;;;;;;7.97;4.07;;;9.20;72.70;;;;;;2331364;54;21018;-82
2021/12/12 12:03:37;;;;;;;9.10;4.60;;;9.20;72.80;;;;;;2552033;53;21015;-82
2021/12/12 12:13:11;;;;;;;6.70;3.83;;;9.30;73.30;;;;;;2552357;53;20998;-82
2021/12/12 12:16:10;;;;;;;5.40;3.37;;;9.40;72.80;;;;;;2331658;54;21002;-83
2021/12/12 12:23:11;;;;;;;5.75;3.40;;;9.50;73.90;;;;;;2552711;53;20991;-82
2021/12/12 12:28:38;;;;;;;6.07;4.03;;;9.60;73.90;;;;;;2552094;53;21482;-82
2021/12/12 12:31:57;;;;;;;7.62;4.57;;;9.60;73.70;;;;;;2312610;54;20991;-82
2021/12/12 12:38:13;;;;;;;6.53;3.85;;;9.70;73.10;;;;;;2550588;53;21122;-82
2021/12/12 12:41:16;;;;;;;5.20;3.37;;;9.70;73.20;;;;;;2553283;53;21485;-82
2021/12/12 12:44:19;;;;;;;6.43;3.50;;;9.80;73.10;;;;;;2319643;54;20959;-82
2021/12/12 12:48:49;;;;;;;6.57;3.67;;;9.80;73.10;;;;;;2555052;53;20976;-81
2021/12/12 12:51:34;;;;;;;6.35;3.58;;;9.80;72.80;;;;;;2553772;53;20947;-82
2021/12/12 12:54:16;;;;;;;6.95;3.35;;;9.80;73.30;;;;;;2548630;53;21967;-83
2021/12/12 13:00:15;;;;;;;5.40;3.17;;;9.80;72.70;;;;;;2561211;53;20947;-83
2021/12/12 13:06:33;;;;;;;6.12;3.33;;;9.80;70.90;;;;;;2551128;53;20988;-84
2021/12/12 13:09:28;;;;;;;6.03;3.58;;;9.80;71.40;;;;;;2552403;53;20940;-82
2021/12/12 13:12:28;;;;;;;6.28;2.67;;;9.70;72.10;;;;;;2552264;53;20959;-82
2021/12/12 13:19:12;;;;;;;5.78;3.03;;;9.70;71.90;;;;;;2566683;53;20915;-82
2021/12/12 13:23:35;;;;;;;4.35;2.58;;;9.70;71.70;;;;;;2557637;53;20887;-83
2021/12/12 13:26:06;;;;;;;5.40;2.90;;;9.80;73.20;;;;;;2550437;53;20955;-83
2021/12/12 13:29:25;;;;;;;5.15;2.97;;;9.80;73.30;;;;;;2550188;53;20979;-82
2021/12/12 13:31:54;;;;;;;5.25;2.95;;;9.80;73.00;;;;;;2312267;55;20991;-82
2021/12/12 13:34:53;;;;;;;6.00;3.25;;;9.80;73.60;;;;;;2549729;53;20986;-81
2021/12/12 13:37:30;;;;;;;6.45;3.42;;;9.80;73.10;;;;;;2563208;53;20951;-82
2021/12/12 13:41:38;;;;;;;6.12;3.15;;;9.90;73.50;;;;;;2313385;54;20939;-83
2021/12/12 13:44:34;;;;;;;5.68;3.22;;;9.90;72.20;;;;;;2329654;54;20947;-81
2021/12/12 13:47:19;;;;;;;6.78;3.47;;;10.00;72.30;;;;;;2563474;53;20953;-82
2021/12/12 13:49:58;;;;;;;5.90;3.25;;;10.00;72.40;;;;;;2537734;53;21490;-82
2021/12/12 13:52:37;;;;;;;7.43;4.30;;;10.00;72.60;;;;;;2549862;53;21027;-83
2021/12/12 13:57:05;;;;;;;38.40;17.40;;;10.10;72.40;;;;;;2518963;54;20991;-83
2021/12/12 14:01:25;;;;;;;17.87;9.05;;;10.10;72.00;;;;;;2547952;53;21042;-83
2021/12/12 14:04:01;;;;;;;16.12;8.00;;;10.20;70.80;;;;;;2560445;53;20900;-83
2021/12/12 14:06:27;;;;;;;11.98;6.70;;;10.20;71.80;;;;;;2566853;53;21925;-82
2021/12/12 14:09:00;;;;;;;10.52;4.93;;;10.20;72.10;;;;;;2551771;53;21544;-82
2021/12/12 14:11:29;;;;;;;8.65;4.68;;;10.20;71.90;;;;;;2550112;53;21077;-81
2021/12/12 14:14:12;;;;;;;8.00;4.30;;;10.30;72.00;;;;;;2550033;53;21007;-82
2021/12/12 14:16:53;;;;;;;6.85;3.83;;;10.20;71.20;;;;;;2518774;54;21039;-83
2021/12/12 14:19:47;;;;;;;6.05;3.55;;;10.20;71.50;;;;;;2549127;53;21073;-82
2021/12/12 14:22:17;;;;;;;4.93;2.65;;;10.20;70.90;;;;;;2549675;53;21054;-82
2021/12/12 14:24:43;;;;;;;3.80;2.22;;;10.20;71.60;;;;;;2550182;53;21027;-83
2021/12/12 14:27:12;;;;;;;3.45;2.03;;;10.30;71.60;;;;;;2549448;53;20999;-82
2021/12/12 14:29:38;;;;;;;4.90;2.15;;;10.20;71.40;;;;;;2518853;54;21038;-83
2021/12/12 14:32:08;;;;;;;4.28;2.20;;;10.20;71.00;;;;;;2558605;53;21284;-82
2021/12/12 14:34:41;;;;;;;4.50;2.20;;;10.20;70.90;;;;;;2559201;53;21018;-82
2021/12/12 14:37:10;;;;;;;4.37;2.50;;;10.10;70.50;;;;;;2519223;54;21819;-83
2021/12/12 14:39:37;;;;;;;3.90;1.90;;;10.10;70.50;;;;;;2565600;53;22044;-86
2021/12/12 14:42:23;;;;;;;4.00;2.30;;;10.10;70.50;;;;;;2550376;53;20991;-83
2021/12/12 14:44:53;;;;;;;3.80;2.20;;;10.10;69.70;;;;;;2551040;53;21015;-82
2021/12/12 14:47:28;;;;;;;5.28;2.62;;;10.00;70.10;;;;;;2550871;53;21011;-83
2021/12/12 14:49:57;;;;;;;3.22;1.83;;;10.00;69.70;;;;;;2567259;53;21042;-83
2021/12/12 14:52:29;;;;;;;4.68;2.42;;;10.00;70.30;;;;;;2551361;53;21042;-82